Wildflower 2 — YE456Q — position and weather

sailwx.info

Track history (hours):
 
Tides and Currents Weather Stations Pressure Air Temp Water Temp Dewpoint Dewpoint Depression Visibility Wind Speed Wind Dir Waves Ship Positions

Wildflower 2

Last reported at 2017-Dec-03 04:38 UTC. Time now 2017-Dec-11 00:26 UTC.
Position S 28°02' E 153°28'.

Length 13 m.

Type: Sailing vessel. MMSI: 503003350.

Date/timePositionNaut miles runAvg speedWind from/ knotsBaromVisibWave heightAir tempDewpointWater temp
2017-Dec-03 04:38S 28°02' E 153°28'2 5.2
2017-Dec-03 04:19S 28°03' E 153°30'2 5.9
2017-Dec-03 03:59S 28°05' E 153°32'2 5.1
2017-Dec-03 03:30S 28°07' E 153°33'2 4.6
2017-Dec-03 03:00S 28°09' E 153°34'2 4.3
2017-Dec-03 02:30S 28°11' E 153°34'3 5.9
2017-Dec-03 02:00S 28°08' E 153°34'4 7.7
2017-Dec-03 01:30S 28°05' E 153°32'4 6.6
2017-Dec-03 00:57S 28°01' E 153°30'  
2017-Nov-26 02:17S 27°54' E 153°25'2 5.7
2017-Nov-26 01:59S 27°52' E 153°25'2 5.3
2017-Nov-26 01:31S 27°50' E 153°24'3 6.0
2017-Nov-26 01:01S 27°47' E 153°26'0 0.5
2017-Nov-26 00:29S 27°48' E 153°26'0 0.0
2017-Nov-25 23:59S 27°48' E 153°26'0 0.0
2017-Nov-25 23:29S 27°48' E 153°26'0 0.0
2017-Nov-25 22:59S 27°48' E 153°26'0 0.0
2017-Nov-25 22:29S 27°48' E 153°26'0 0.0
2017-Nov-25 21:59S 27°48' E 153°26'0 0.0
2017-Nov-25 21:29S 27°48' E 153°26'0 0.0
2017-Nov-25 20:59S 27°48' E 153°26'0 0.0
2017-Nov-25 20:29S 27°48' E 153°26'0 0.0
2017-Nov-25 19:59S 27°48' E 153°26'0 0.0
2017-Nov-25 19:29S 27°48' E 153°26'0 0.0
2017-Nov-25 18:59S 27°48' E 153°26'0 0.0
2017-Nov-25 18:29S 27°48' E 153°26'0 0.0
2017-Nov-25 17:59S 27°48' E 153°26'0 0.0
2017-Nov-25 17:29S 27°48' E 153°26'0 0.0
2017-Nov-25 16:59S 27°48' E 153°26'0 0.0
2017-Nov-25 16:29S 27°48' E 153°26'0 0.0
2017-Nov-25 15:56S 27°48' E 153°26'0 0.0
2017-Nov-25 15:29S 27°48' E 153°26'0 0.0
2017-Nov-25 14:59S 27°48' E 153°26'0 0.0
2017-Nov-25 14:29S 27°48' E 153°26'0 0.0
2017-Nov-25 13:59S 27°48' E 153°26'0 0.0
2017-Nov-25 13:29S 27°48' E 153°26'0 0.0
2017-Nov-25 12:59S 27°48' E 153°26'0 0.0
2017-Nov-25 12:29S 27°48' E 153°26'0 0.0
2017-Nov-25 11:59S 27°48' E 153°26'0 0.0
2017-Nov-25 11:29S 27°48' E 153°26'0 0.0
2017-Nov-25 10:59S 27°48' E 153°26'0 0.0
2017-Nov-25 10:30S 27°48' E 153°26'0 0.0
2017-Nov-25 09:57S 27°48' E 153°26'0 0.0
2017-Nov-25 09:30S 27°48' E 153°26'0 0.0
2017-Nov-25 09:00S 27°48' E 153°26'0 0.0
2017-Nov-25 08:30S 27°48' E 153°26'0 0.0
2017-Nov-25 08:00S 27°48' E 153°26'0 0.0
2017-Nov-25 07:30S 27°48' E 153°26'0 0.0
2017-Nov-25 07:00S 27°48' E 153°26'0 0.0
2017-Nov-25 06:30S 27°48' E 153°26'0 0.0
2017-Nov-25 06:00S 27°48' E 153°26'0 0.0
2017-Nov-25 05:30S 27°48' E 153°26'0 0.0
2017-Nov-25 05:00S 27°48' E 153°26'0 0.0
2017-Nov-25 04:30S 27°48' E 153°26'0 0.0
2017-Nov-25 04:00S 27°48' E 153°26'0 0.0
2017-Nov-25 03:28S 27°48' E 153°26'0 0.0
2017-Nov-25 02:58S 27°48' E 153°26'0 0.0
2017-Nov-25 02:28S 27°48' E 153°26'0 0.0
2017-Nov-25 01:58S 27°48' E 153°26'0 0.0
2017-Nov-25 01:28S 27°48' E 153°26'0 0.6
2017-Nov-25 01:00S 27°47' E 153°26'3 7.0
2017-Nov-25 00:30S 27°50' E 153°24'4 0.2
2017-Nov-24 04:31S 27°54' E 153°25'0 8.5
2017-Nov-24 04:28S 27°53' E 153°25'2 4.9
2017-Nov-24 04:00S 27°52' E 153°23'2 4.2
2017-Nov-24 03:27S 27°52' E 153°20'0 0.0
2017-Nov-24 03:00S 27°52' E 153°20'0 0.1
2017-Nov-24 02:30S 27°52' E 153°20'0 0.2
2017-Nov-24 01:57S 27°52' E 153°20'0 0.0
2017-Nov-24 01:30S 27°52' E 153°20'0 0.1
2017-Nov-24 00:57S 27°52' E 153°20'0 0.0
2017-Nov-24 00:30S 27°52' E 153°20'0 0.1
2017-Nov-23 23:57S 27°52' E 153°20'0 0.0
2017-Nov-23 23:21S 27°52' E 153°20'0 0.1
2017-Nov-23 22:54S 27°52' E 153°20'0 0.1
2017-Nov-23 22:12S 27°52' E 153°20'0 0.0
2017-Nov-23 19:18S 27°52' E 153°20'0 0.2
2017-Nov-23 18:57S 27°52' E 153°20'0 0.3
2017-Nov-23 18:27S 27°52' E 153°20'0 0.3
2017-Nov-23 17:58S 27°52' E 153°20'0 0.1
2017-Nov-23 17:21S 27°52' E 153°20'0 0.3
2017-Nov-23 16:57S 27°52' E 153°20'0 0.1
2017-Nov-23 16:06S 27°52' E 153°20'0 0.1
2017-Nov-23 15:57S 27°52' E 153°20'0 0.1
2017-Nov-23 15:21S 27°52' E 153°20'0 0.1
2017-Nov-23 14:45S 27°52' E 153°20'0 0.0
2017-Nov-23 14:30S 27°52' E 153°20'0 0.1
2017-Nov-23 13:57S 27°52' E 153°20'0 0.0
2017-Nov-23 13:24S 27°52' E 153°20'0 0.0
2017-Nov-23 13:00S 27°52' E 153°20'0 0.1
2017-Nov-23 12:27S 27°52' E 153°20'0 0.1
2017-Nov-23 12:00S 27°52' E 153°20'0 0.1
2017-Nov-23 11:27S 27°52' E 153°20'0 0.0
2017-Nov-23 10:57S 27°52' E 153°20'0 0.1
2017-Nov-23 10:12S 27°52' E 153°20'0 0.1
2017-Nov-23 10:00S 27°52' E 153°20'0 0.0
2017-Nov-23 09:22S 27°52' E 153°20'0 0.2
2017-Nov-23 08:55S 27°52' E 153°20'0 0.1
2017-Nov-23 08:13S 27°52' E 153°20'0 0.2
2017-Nov-23 07:54S 27°52' E 153°20'0 0.0
2017-Nov-23 07:18S 27°52' E 153°20'0 0.0
2017-Nov-23 06:45S 27°52' E 153°20'0 0.0
2017-Nov-23 06:03S 27°52' E 153°20'0 0.0
2017-Nov-23 05:42S 27°52' E 153°20'0 0.0
2017-Nov-23 05:18S 27°52' E 153°20'0 0.1
2017-Nov-23 04:39S 27°52' E 153°20'  
Track history (hours):
 
Tides and Currents Weather Stations Pressure Air Temp Water Temp Dewpoint Dewpoint Depression Visibility Wind Speed Wind Dir Waves Ship Positions

Wildflower 2

Last reported at 2017-Dec-03 04:38 UTC. Time now 2017-Dec-11 00:26 UTC.
Position S 28°02' E 153°28'.

Length 13 m.

Type: Sailing vessel. MMSI: 503003350.

Date/timePositionNaut miles runAvg speedWind from/ knotsBaromVisibWave heightAir tempDewpointWater temp
2017-Dec-03 04:38S 28°02' E 153°28'2 5.2
2017-Dec-03 04:19S 28°03' E 153°30'2 5.9
2017-Dec-03 03:59S 28°05' E 153°32'2 5.1
2017-Dec-03 03:30S 28°07' E 153°33'2 4.6
2017-Dec-03 03:00S 28°09' E 153°34'2 4.3
2017-Dec-03 02:30S 28°11' E 153°34'3 5.9
2017-Dec-03 02:00S 28°08' E 153°34'4 7.7
2017-Dec-03 01:30S 28°05' E 153°32'4 6.6
2017-Dec-03 00:57S 28°01' E 153°30'  
2017-Nov-26 02:17S 27°54' E 153°25'2 5.7
2017-Nov-26 01:59S 27°52' E 153°25'2 5.3
2017-Nov-26 01:31S 27°50' E 153°24'3 6.0
2017-Nov-26 01:01S 27°47' E 153°26'0 0.5
2017-Nov-26 00:29S 27°48' E 153°26'0 0.0
2017-Nov-25 23:59S 27°48' E 153°26'0 0.0
2017-Nov-25 23:29S 27°48' E 153°26'0 0.0
2017-Nov-25 22:59S 27°48' E 153°26'0 0.0
2017-Nov-25 22:29S 27°48' E 153°26'0 0.0
2017-Nov-25 21:59S 27°48' E 153°26'0 0.0
2017-Nov-25 21:29S 27°48' E 153°26'0 0.0
2017-Nov-25 20:59S 27°48' E 153°26'0 0.0
2017-Nov-25 20:29S 27°48' E 153°26'0 0.0
2017-Nov-25 19:59S 27°48' E 153°26'0 0.0
2017-Nov-25 19:29S 27°48' E 153°26'0 0.0
2017-Nov-25 18:59S 27°48' E 153°26'0 0.0
2017-Nov-25 18:29S 27°48' E 153°26'0 0.0
2017-Nov-25 17:59S 27°48' E 153°26'0 0.0
2017-Nov-25 17:29S 27°48' E 153°26'0 0.0
2017-Nov-25 16:59S 27°48' E 153°26'0 0.0
2017-Nov-25 16:29S 27°48' E 153°26'0 0.0
2017-Nov-25 15:56S 27°48' E 153°26'0 0.0
2017-Nov-25 15:29S 27°48' E 153°26'0 0.0
2017-Nov-25 14:59S 27°48' E 153°26'0 0.0
2017-Nov-25 14:29S 27°48' E 153°26'0 0.0
2017-Nov-25 13:59S 27°48' E 153°26'0 0.0
2017-Nov-25 13:29S 27°48' E 153°26'0 0.0
2017-Nov-25 12:59S 27°48' E 153°26'0 0.0
2017-Nov-25 12:29S 27°48' E 153°26'0 0.0
2017-Nov-25 11:59S 27°48' E 153°26'0 0.0
2017-Nov-25 11:29S 27°48' E 153°26'0 0.0
2017-Nov-25 10:59S 27°48' E 153°26'0 0.0
2017-Nov-25 10:30S 27°48' E 153°26'0 0.0
2017-Nov-25 09:57S 27°48' E 153°26'0 0.0
2017-Nov-25 09:30S 27°48' E 153°26'0 0.0
2017-Nov-25 09:00S 27°48' E 153°26'0 0.0
2017-Nov-25 08:30S 27°48' E 153°26'0 0.0
2017-Nov-25 08:00S 27°48' E 153°26'0 0.0
2017-Nov-25 07:30S 27°48' E 153°26'0 0.0
2017-Nov-25 07:00S 27°48' E 153°26'0 0.0
2017-Nov-25 06:30S 27°48' E 153°26'0 0.0
2017-Nov-25 06:00S 27°48' E 153°26'0 0.0
2017-Nov-25 05:30S 27°48' E 153°26'0 0.0
2017-Nov-25 05:00S 27°48' E 153°26'0 0.0
2017-Nov-25 04:30S 27°48' E 153°26'0 0.0
2017-Nov-25 04:00S 27°48' E 153°26'0 0.0
2017-Nov-25 03:28S 27°48' E 153°26'0 0.0
2017-Nov-25 02:58S 27°48' E 153°26'0 0.0
2017-Nov-25 02:28S 27°48' E 153°26'0 0.0
2017-Nov-25 01:58S 27°48' E 153°26'0 0.0
2017-Nov-25 01:28S 27°48' E 153°26'0 0.6
2017-Nov-25 01:00S 27°47' E 153°26'3 7.0
2017-Nov-25 00:30S 27°50' E 153°24'4 0.2
2017-Nov-24 04:31S 27°54' E 153°25'0 8.5
2017-Nov-24 04:28S 27°53' E 153°25'2 4.9
2017-Nov-24 04:00S 27°52' E 153°23'2 4.2
2017-Nov-24 03:27S 27°52' E 153°20'0 0.0
2017-Nov-24 03:00S 27°52' E 153°20'0 0.1
2017-Nov-24 02:30S 27°52' E 153°20'0 0.2
2017-Nov-24 01:57S 27°52' E 153°20'0 0.0
2017-Nov-24 01:30S 27°52' E 153°20'0 0.1
2017-Nov-24 00:57S 27°52' E 153°20'0 0.0
2017-Nov-24 00:30S 27°52' E 153°20'0 0.1
2017-Nov-23 23:57S 27°52' E 153°20'0 0.0
2017-Nov-23 23:21S 27°52' E 153°20'0 0.1
2017-Nov-23 22:54S 27°52' E 153°20'0 0.1
2017-Nov-23 22:12S 27°52' E 153°20'0 0.0
2017-Nov-23 19:18S 27°52' E 153°20'0 0.2
2017-Nov-23 18:57S 27°52' E 153°20'0 0.3
2017-Nov-23 18:27S 27°52' E 153°20'0 0.3
2017-Nov-23 17:58S 27°52' E 153°20'0 0.1
2017-Nov-23 17:21S 27°52' E 153°20'0 0.3
2017-Nov-23 16:57S 27°52' E 153°20'0 0.1
2017-Nov-23 16:06S 27°52' E 153°20'0 0.1
2017-Nov-23 15:57S 27°52' E 153°20'0 0.1
2017-Nov-23 15:21S 27°52' E 153°20'0 0.1
2017-Nov-23 14:45S 27°52' E 153°20'0 0.0
2017-Nov-23 14:30S 27°52' E 153°20'0 0.1
2017-Nov-23 13:57S 27°52' E 153°20'0 0.0
2017-Nov-23 13:24S 27°52' E 153°20'0 0.0
2017-Nov-23 13:00S 27°52' E 153°20'0 0.1
2017-Nov-23 12:27S 27°52' E 153°20'0 0.1
2017-Nov-23 12:00S 27°52' E 153°20'0 0.1
2017-Nov-23 11:27S 27°52' E 153°20'0 0.0
2017-Nov-23 10:57S 27°52' E 153°20'0 0.1
2017-Nov-23 10:12S 27°52' E 153°20'0 0.1
2017-Nov-23 10:00S 27°52' E 153°20'0 0.0
2017-Nov-23 09:22S 27°52' E 153°20'0 0.2
2017-Nov-23 08:55S 27°52' E 153°20'0 0.1
2017-Nov-23 08:13S 27°52' E 153°20'0 0.2
2017-Nov-23 07:54S 27°52' E 153°20'0 0.0
2017-Nov-23 07:18S 27°52' E 153°20'0 0.0
2017-Nov-23 06:45S 27°52' E 153°20'0 0.0
2017-Nov-23 06:03S 27°52' E 153°20'0 0.0
2017-Nov-23 05:42S 27°52' E 153°20'0 0.0
2017-Nov-23 05:18S 27°52' E 153°20'0 0.1
2017-Nov-23 04:39S 27°52' E 153°20'  

Dump ship's entire track history